Time;durP1;ratioP1;P1;durP2;ratioP2;P2;SDS_P1;SDS_P2;PMS_P1;PMS_P2;Temp;Humidity;BMP_temperature;BMP_pressure;BME280_temperature;BME280_humidity;BME280_pressure;Samples;Min_cycle;Max_cycle;Signal;HPM_P1;HPM_P2
2021/08/08 00:01:19;;;;;;;3.17;1.58;;;;;;;15.87;73.51;98124.81;3592286;40;20040;-70
2021/08/08 00:03:49;;;;;;;2.15;1.20;;;;;;;15.92;73.50;98118.75;3591855;40;20084;-70
2021/08/08 00:06:29;;;;;;;2.25;0.95;;;;;;;15.90;73.63;98129.69;3592258;40;20059;-70
2021/08/08 00:08:57;;;;;;;2.78;1.25;;;;;;;15.85;74.08;98141.06;3590206;40;20055;-70
2021/08/08 00:11:25;;;;;;;3.42;1.40;;;;;;;15.85;74.27;98140.28;3588863;40;20061;-70
2021/08/08 00:13:56;;;;;;;1.27;1.17;;;;;;;15.85;74.19;98140.28;3590744;40;20055;-69
2021/08/08 00:16:25;;;;;;;2.03;1.10;;;;;;;15.86;74.45;98141.88;3590118;40;20040;-70
2021/08/08 00:18:54;;;;;;;4.28;1.30;;;;;;;15.88;74.50;98146.97;3590407;40;20044;-70
2021/08/08 00:21:22;;;;;;;3.05;1.20;;;;;;;15.87;74.14;98145.34;3590480;40;20057;-69
2021/08/08 00:23:50;;;;;;;1.73;1.40;;;;;;;15.91;74.16;98151.81;3590424;40;20048;-70
2021/08/08 00:26:18;;;;;;;4.15;1.30;;;;;;;15.89;74.10;98148.59;3589910;40;20052;-69
2021/08/08 00:28:48;;;;;;;1.90;1.15;;;;;;;15.91;74.56;98154.47;3588489;40;20050;-70
2021/08/08 00:31:22;;;;;;;3.22;1.25;;;;;;;15.97;74.35;98150.84;3589359;40;20060;-70
2021/08/08 00:33:51;;;;;;;2.28;1.20;;;;;;;16.01;73.85;98154.66;3588848;40;20056;-69
2021/08/08 00:36:21;;;;;;;2.35;1.00;;;;;;;16.02;73.98;98158.91;3588513;40;20052;-70
2021/08/08 00:38:51;;;;;;;3.22;1.15;;;;;;;16.03;73.58;98155.19;3588075;40;20060;-70
2021/08/08 00:41:19;;;;;;;5.78;1.48;;;;;;;15.99;73.57;98154.88;3588047;40;20394;-69
2021/08/08 00:43:47;;;;;;;4.30;1.35;;;;;;;15.98;73.66;98147.94;3588117;40;20450;-69
2021/08/08 00:46:15;;;;;;;2.30;1.00;;;;;;;16.01;73.90;98158.13;3588306;40;20404;-69
2021/08/08 00:48:45;;;;;;;3.47;1.20;;;;;;;16.00;73.55;98164.50;3588158;40;20035;-69
2021/08/08 00:51:19;;;;;;;1.73;1.10;;;;;;;16.02;73.54;98165.06;3588166;40;20394;-70
2021/08/08 00:53:48;;;;;;;2.97;1.20;;;;;;;15.97;73.06;98174.84;3647521;22;20045;-67
2021/08/08 00:56:17;;;;;;;1.10;1.00;;;;;;;15.99;73.03;98164.72;3588557;40;20089;-68
2021/08/08 00:58:46;;;;;;;2.17;1.10;;;;;;;16.00;72.94;98164.50;3588733;40;20110;-67
2021/08/08 01:01:22;;;;;;;3.10;1.48;;;;;;;16.00;73.09;98169.84;3588894;40;20048;-69
2021/08/08 01:03:52;;;;;;;3.45;1.20;;;;;;;16.00;72.67;98172.50;3588141;40;20052;-68
2021/08/08 01:06:37;;;;;;;2.08;0.90;;;;;;;15.99;72.57;98162.06;3588872;40;20056;-69
2021/08/08 01:09:09;;;;;;;2.72;1.30;;;;;;;16.00;72.42;98169.00;3588868;40;20341;-68
2021/08/08 01:11:40;;;;;;;1.67;1.00;;;;;;;15.96;72.47;98170.53;3587825;40;20066;-69
2021/08/08 01:14:11;;;;;;;3.75;1.30;;;;;;;15.94;72.50;98165.47;3588999;40;20033;-68
2021/08/08 01:16:47;;;;;;;2.05;1.05;;;;;;;15.92;72.70;98169.41;3587749;40;20098;-68
2021/08/08 01:19:19;;;;;;;2.28;1.00;;;;;;;15.89;72.76;98183.25;3588539;40;20105;-68
2021/08/08 01:21:51;;;;;;;3.40;1.33;;;;;;;15.89;72.76;98183.25;3591828;40;20060;-68
2021/08/08 01:24:23;;;;;;;3.40;1.00;;;;;;;15.90;73.08;98183.00;3592155;40;20056;-68
2021/08/08 01:26:52;;;;;;;3.72;1.60;;;;;;;15.89;72.96;98183.25;3593413;40;20032;-69
2021/08/08 01:29:21;;;;;;;3.92;1.23;;;;;;;15.88;72.98;98177.09;3592824;40;20040;-69
2021/08/08 01:31:52;;;;;;;1.55;1.10;;;;;;;15.85;72.79;98180.25;3589355;40;20129;-67
2021/08/08 01:34:24;;;;;;;3.78;0.90;;;;;;;15.79;73.44;98184.66;3588765;40;20044;-66
2021/08/08 01:36:57;;;;;;;2.70;1.00;;;;;;;15.78;73.35;98180.41;3588612;40;20040;-67
2021/08/08 01:39:31;;;;;;;3.58;1.13;;;;;;;15.76;73.35;98181.69;3589380;40;20079;-67
2021/08/08 01:42:04;;;;;;;4.40;1.10;;;;;;;15.71;73.29;98185.06;3591493;40;20056;-67
2021/08/08 01:44:40;;;;;;;3.00;0.95;;;;;;;15.71;73.78;98186.94;3591611;40;20037;-67
2021/08/08 01:47:11;;;;;;;2.10;1.20;;;;;;;15.65;73.98;98185.22;3592930;40;20051;-68
2021/08/08 01:49:44;;;;;;;2.05;1.15;;;;;;;15.63;74.00;98181.97;3591364;40;20397;-67
2021/08/08 01:52:15;;;;;;;4.70;1.30;;;;;;;15.59;73.90;98184.28;3590212;40;20041;-68
2021/08/08 01:54:50;;;;;;;3.33;1.02;;;;;;;15.58;74.52;98186.16;3587302;40;20045;-70
2021/08/08 01:57:25;;;;;;;4.30;1.05;;;;;;;15.59;74.13;98185.13;3587409;40;20319;-68
2021/08/08 02:00:04;;;;;;;2.25;1.00;;;;;;;15.57;74.08;98183.72;3587062;40;20067;-68
2021/08/08 02:02:50;;;;;;;2.58;1.20;;;;;;;15.59;74.47;98187.78;3589151;40;20033;-68
2021/08/08 02:05:22;;;;;;;2.38;0.95;;;;;;;15.56;74.62;98185.59;3588501;40;20048;-68
2021/08/08 02:07:51;;;;;;;3.78;1.42;;;;;;;15.57;74.38;98189.06;3588018;40;20056;-68
2021/08/08 02:10:22;;;;;;;5.22;1.48;;;;;;;15.53;74.62;98194.06;3587597;40;20059;-68
2021/08/08 02:12:51;;;;;;;3.15;1.10;;;;;;;15.53;74.76;98190.59;3587401;40;20055;-68
2021/08/08 02:15:19;;;;;;;2.22;1.10;;;;;;;15.51;75.12;98200.66;3590729;40;20052;-68
2021/08/08 02:17:56;;;;;;;4.72;1.27;;;;;;;15.57;74.92;98205.84;3590435;40;20056;-68
2021/08/08 02:20:27;;;;;;;1.17;0.88;;;;;;;15.60;75.07;98202.72;3589127;40;20361;-68
2021/08/08 02:23:00;;;;;;;2.83;1.30;;;;;;;15.60;74.59;98212.56;3588883;40;20086;-68
2021/08/08 02:25:32;;;;;;;3.38;1.70;;;;;;;15.57;75.01;98215.69;3589294;40;20061;-67
2021/08/08 02:28:06;;;;;;;4.63;1.40;;;;;;;15.58;75.10;98220.78;3592163;40;20088;-67
2021/08/08 02:30:38;;;;;;;3.22;1.20;;;;;;;15.54;75.21;98224.16;3592833;40;20099;-68
2021/08/08 02:33:08;;;;;;;3.92;1.38;;;;;;;15.57;74.77;98224.50;3591996;40;20052;-68
2021/08/08 02:35:38;;;;;;;3.70;1.30;;;;;;;15.58;74.94;98228.78;3590664;40;20056;-67
2021/08/08 02:38:11;;;;;;;6.18;1.52;;;;;;;15.57;74.82;98218.38;3589179;40;20052;-68
2021/08/08 02:40:40;;;;;;;8.77;1.40;;;;;;;15.57;74.75;98235.16;3590424;40;20336;-67
2021/08/08 02:43:11;;;;;;;3.40;1.42;;;;;;;15.61;74.49;98230.16;3591588;40;20060;-67
2021/08/08 02:45:40;;;;;;;3.97;1.63;;;;;;;15.56;74.23;98228.22;3594174;40;20048;-67
2021/08/08 02:48:12;;;;;;;3.53;1.50;;;;;;;15.55;74.21;98233.75;3593460;40;20044;-67
2021/08/08 02:50:40;;;;;;;2.42;1.50;;;;;;;15.55;74.50;98233.75;3594618;40;20402;-67
2021/08/08 02:53:09;;;;;;;1.83;1.30;;;;;;;15.52;74.28;98236.94;3593849;40;20106;-67
2021/08/08 02:55:41;;;;;;;2.55;1.40;;;;;;;15.53;74.68;98235.88;3594134;40;20052;-67
2021/08/08 02:58:09;;;;;;;2.42;1.10;;;;;;;15.48;74.72;98243.78;3593727;40;20141;-67
2021/08/08 03:00:39;;;;;;;1.98;1.30;;;;;;;15.48;74.44;98239.25;3593911;40;20431;-67
2021/08/08 03:03:08;;;;;;;7.20;1.63;;;;;;;15.47;74.28;98236.81;3595229;40;20033;-67
2021/08/08 03:05:37;;;;;;;1.80;1.10;;;;;;;15.43;74.58;98233.00;3594506;40;20048;-68
2021/08/08 03:08:07;;;;;;;5.00;1.70;;;;;;;15.35;75.00;98245.66;3590474;40;20394;-68
2021/08/08 03:10:35;;;;;;;4.40;1.50;;;;;;;15.39;74.71;98239.84;3590670;40;20048;-67
2021/08/08 03:13:06;;;;;;;2.53;1.30;;;;;;;15.40;74.61;98225.50;3589146;40;20068;-67
2021/08/08 03:15:38;;;;;;;3.63;1.95;;;;;;;15.37;74.90;98237.44;3589340;40;20071;-68
2021/08/08 03:18:07;;;;;;;4.00;1.60;;;;;;;15.33;74.89;98252.28;3588977;40;20088;-67
2021/08/08 03:20:35;;;;;;;1.65;1.30;;;;;;;15.29;74.60;98254.59;3589132;40;20084;-67
2021/08/08 03:23:04;;;;;;;3.47;1.48;;;;;;;15.29;74.72;98254.59;3588841;40;20057;-67
2021/08/08 03:25:31;;;;;;;3.83;2.08;;;;;;;15.26;74.89;98248.94;3589166;40;20048;-67
2021/08/08 03:27:59;;;;;;;4.00;1.20;;;;;;;15.25;74.44;98258.78;3589829;40;20068;-67
2021/08/08 03:30:29;;;;;;;5.57;1.60;;;;;;;15.23;74.57;98252.09;3588606;40;20146;-67
2021/08/08 03:32:57;;;;;;;4.65;1.35;;;;;;;15.24;74.69;98256.34;3589688;40;20410;-67
2021/08/08 03:35:24;;;;;;;4.30;1.55;;;;;;;15.21;74.52;98262.94;3589064;40;20052;-67
2021/08/08 03:37:53;;;;;;;3.03;1.30;;;;;;;15.18;74.54;98265.28;3589004;40;20389;-67
2021/08/08 03:40:22;;;;;;;1.90;1.55;;;;;;;15.16;74.27;98264.72;3588884;40;20394;-67
2021/08/08 03:42:50;;;;;;;5.30;1.48;;;;;;;15.14;74.75;98270.25;3588940;40;20130;-67
2021/08/08 03:45:20;;;;;;;4.28;1.52;;;;;;;15.13;74.60;98265.19;3589033;40;20052;-68
2021/08/08 03:47:50;;;;;;;3.90;1.55;;;;;;;15.10;74.67;98275.25;3589351;40;20464;-68
2021/08/08 03:50:19;;;;;;;5.85;1.77;;;;;;;15.09;74.39;98278.13;3589288;40;20059;-67
2021/08/08 03:52:48;;;;;;;2.78;1.58;;;;;;;15.08;74.43;98285.31;3588888;40;20033;-67
2021/08/08 03:55:16;;;;;;;4.32;1.73;;;;;;;15.04;74.46;98280.69;3588604;40;20405;-68
2021/08/08 03:57:44;;;;;;;4.68;1.40;;;;;;;15.02;74.99;98294.25;3590007;40;20319;-68
2021/08/08 04:00:19;;;;;;;1.65;1.27;;;;;;;15.01;74.73;98291.81;3588284;40;20398;-69
2021/08/08 04:02:50;;;;;;;4.97;1.70;;;;;;;15.02;75.06;98296.91;3587950;40;20111;-69
2021/08/08 04:05:21;;;;;;;1.60;1.50;;;;;;;15.03;75.12;98295.06;3588499;40;20067;-68
2021/08/08 04:07:49;;;;;;;2.80;1.23;;;;;;;14.99;74.83;98291.25;3588958;40;20506;-69
2021/08/08 04:10:19;;;;;;;2.80;1.40;;;;;;;15.01;75.11;98289.94;3588013;40;20055;-69
2021/08/08 04:12:47;;;;;;;4.82;1.58;;;;;;;15.05;74.70;98298.28;3588015;40;20056;-69
2021/08/08 04:15:19;;;;;;;4.50;1.50;;;;;;;15.06;74.89;98302.56;3588046;40;20125;-69
2021/08/08 04:17:50;;;;;;;2.63;1.40;;;;;;;15.08;74.56;98298.63;3588176;40;20123;-68
2021/08/08 04:20:20;;;;;;;4.72;1.80;;;;;;;15.08;74.56;98308.47;3587707;40;20044;-68
2021/08/08 04:22:48;;;;;;;3.22;1.65;;;;;;;15.03;74.61;98317.16;3587985;40;20060;-68
2021/08/08 04:25:16;;;;;;;3.85;1.60;;;;;;;15.03;74.66;98314.50;3588991;40;20299;-68
2021/08/08 04:27:44;;;;;;;5.15;1.80;;;;;;;15.06;74.17;98316.69;3589971;40;20048;-68
2021/08/08 04:30:13;;;;;;;4.15;1.85;;;;;;;15.09;73.90;98320.72;3589519;40;20056;-68
2021/08/08 04:32:41;;;;;;;6.78;1.75;;;;;;;15.11;73.68;98332.78;3589507;40;20311;-68
2021/08/08 04:35:13;;;;;;;3.70;1.80;;;;;;;15.15;73.30;98314.50;3589387;40;20049;-67
2021/08/08 04:37:42;;;;;;;6.97;1.90;;;;;;;15.18;73.50;98335.31;3589024;40;20044;-68
2021/08/08 04:40:11;;;;;;;3.05;1.80;;;;;;;15.22;73.42;98336.44;3588292;40;20049;-67
2021/08/08 04:42:39;;;;;;;3.55;2.10;;;;;;;15.26;73.31;98332.28;3589669;40;20040;-67
2021/08/08 04:45:09;;;;;;;5.90;2.03;;;;;;;15.24;73.07;98337.03;3588266;40;20431;-67
2021/08/08 04:47:38;;;;;;;9.18;1.88;;;;;;;15.27;72.66;98327.78;3588661;40;20048;-68
2021/08/08 04:50:07;;;;;;;3.30;1.52;;;;;;;15.33;72.57;98332.97;3588551;40;20052;-67
2021/08/08 04:52:39;;;;;;;5.05;1.90;;;;;;;15.30;72.25;98335.28;3588652;40;20053;-68
2021/08/08 04:55:09;;;;;;;8.48;2.35;;;;;;;15.29;72.40;98339.81;3590778;40;20052;-67
2021/08/08 04:57:37;;;;;;;3.78;1.80;;;;;;;15.30;72.03;98336.09;3590517;40;20107;-68
2021/08/08 05:00:07;;;;;;;3.92;1.90;;;;;;;15.33;72.31;98338.28;3589716;40;20056;-67
2021/08/08 05:02:36;;;;;;;7.10;2.10;;;;;;;15.44;72.20;98343.84;3589249;40;20139;-67
2021/08/08 05:05:06;;;;;;;6.25;1.80;;;;;;;15.41;72.08;98350.44;3588652;40;20057;-68
2021/08/08 05:07:39;;;;;;;6.40;2.13;;;;;;;15.46;71.93;98341.75;3589672;40;20130;-68
2021/08/08 05:10:09;;;;;;;6.30;2.00;;;;;;;15.48;71.99;98353.00;3588163;40;20032;-68
2021/08/08 05:12:38;;;;;;;7.88;2.67;;;;;;;15.52;71.87;98364.78;3587736;40;20056;-68
2021/08/08 05:15:07;;;;;;;5.55;2.10;;;;;;;15.53;71.70;98353.09;3587676;40;20051;-68
2021/08/08 05:17:35;;;;;;;4.35;2.17;;;;;;;15.53;71.08;98353.09;3587712;40;20052;-67
2021/08/08 05:20:04;;;;;;;6.05;2.25;;;;;;;15.53;70.81;98361.06;3587233;40;20044;-68
2021/08/08 05:22:32;;;;;;;4.28;2.25;;;;;;;15.52;70.55;98364.78;3588628;40;20383;-68
2021/08/08 05:25:06;;;;;;;3.97;2.00;;;;;;;15.56;70.45;98369.41;3587886;40;20075;-68
2021/08/08 05:27:34;;;;;;;7.82;2.55;;;;;;;15.76;70.35;98363.72;3587902;40;20048;-69
2021/08/08 05:30:08;;;;;;;6.63;2.40;;;;;;;15.84;70.05;98367.88;3587710;40;20040;-69
2021/08/08 05:32:37;;;;;;;5.05;2.10;;;;;;;15.94;69.44;98376.03;3588124;40;20040;-68
2021/08/08 05:35:07;;;;;;;8.00;2.30;;;;;;;15.90;69.77;98380.22;3587858;40;20052;-69
2021/08/08 05:37:35;;;;;;;6.15;2.05;;;;;;;15.89;69.56;98381.28;3587963;40;20040;-68
2021/08/08 05:40:06;;;;;;;6.10;2.20;;;;;;;15.90;69.80;98382.91;3587371;40;20079;-68
2021/08/08 05:42:38;;;;;;;4.75;2.55;;;;;;;15.95;69.42;98392.84;3587797;40;20044;-69
2021/08/08 05:45:08;;;;;;;5.93;2.40;;;;;;;15.94;68.91;98381.38;3587395;40;20395;-69
2021/08/08 05:47:35;;;;;;;4.38;2.20;;;;;;;15.92;69.01;98387.97;3587469;40;20036;-68
2021/08/08 05:50:04;;;;;;;4.80;2.17;;;;;;;15.97;68.68;98396.09;3587060;40;20328;-68
2021/08/08 05:52:33;;;;;;;5.00;2.03;;;;;;;16.05;68.42;98401.06;3587448;40;20126;-68
2021/08/08 05:55:01;;;;;;;4.13;2.00;;;;;;;16.08;68.53;98395.22;3587417;40;20044;-69
2021/08/08 05:57:32;;;;;;;4.07;2.03;;;;;;;16.23;68.68;98397.38;3587673;40;20067;-69
2021/08/08 06:00:00;;;;;;;4.72;2.00;;;;;;;16.24;67.46;98397.13;3588094;40;20057;-69
2021/08/08 06:02:30;;;;;;;3.30;2.08;;;;;;;16.17;67.65;98404.47;3588574;40;20037;-69
2021/08/08 06:04:58;;;;;;;5.05;2.63;;;;;;;16.13;67.27;98403.34;3589406;40;20055;-68
2021/08/08 06:07:26;;;;;;;3.95;2.42;;;;;;;16.06;68.23;98405.34;3590542;40;20029;-68
2021/08/08 06:09:54;;;;;;;3.72;2.10;;;;;;;16.05;68.32;98411.72;3592021;40;20059;-67
2021/08/08 06:12:22;;;;;;;5.88;2.40;;;;;;;16.08;68.78;98411.22;3592704;40;20045;-68
2021/08/08 06:14:51;;;;;;;6.25;2.33;;;;;;;16.05;69.17;98414.38;3591758;40;20052;-69
2021/08/08 06:17:21;;;;;;;5.72;2.45;;;;;;;16.13;69.58;98418.53;3592165;40;20052;-68
2021/08/08 06:19:49;;;;;;;4.63;2.00;;;;;;;16.21;69.48;98423.50;3592618;40;20064;-69
2021/08/08 06:22:17;;;;;;;4.45;2.72;;;;;;;16.25;69.64;98421.97;3592000;40;20028;-69
2021/08/08 06:24:45;;;;;;;3.47;2.05;;;;;;;16.25;69.77;98435.31;3591953;40;20478;-69
2021/08/08 06:27:13;;;;;;;3.15;2.20;;;;;;;16.22;69.78;98436.56;3592385;40;20048;-69
2021/08/08 06:29:41;;;;;;;3.72;2.05;;;;;;;16.28;69.97;98437.47;3592099;40;20065;-69
2021/08/08 06:32:10;;;;;;;6.82;2.17;;;;;;;16.32;69.25;98436.75;3591782;40;20044;-69
2021/08/08 06:34:39;;;;;;;4.25;1.63;;;;;;;16.47;69.03;98436.22;3591769;40;20025;-69
2021/08/08 06:37:07;;;;;;;6.78;1.90;;;;;;;16.46;69.04;98431.16;3590484;40;20040;-69
2021/08/08 06:39:34;;;;;;;3.70;2.10;;;;;;;16.59;69.22;98431.66;3589739;40;20056;-69
2021/08/08 06:42:03;;;;;;;4.25;1.70;;;;;;;16.64;68.48;98444.25;3588857;40;20390;-69
2021/08/08 06:44:36;;;;;;;3.55;2.03;;;;;;;16.69;67.45;98444.34;3588873;40;20406;-68
2021/08/08 06:47:04;;;;;;;3.35;1.80;;;;;;;16.73;66.40;98444.72;3589706;40;20093;-68
2021/08/08 06:49:33;;;;;;;3.55;1.60;;;;;;;16.91;66.12;98444.50;3588336;40;20134;-68
2021/08/08 06:52:01;;;;;;;4.38;1.90;;;;;;;17.02;65.35;98442.78;3588482;40;20138;-68
2021/08/08 06:54:30;;;;;;;2.42;1.60;;;;;;;17.13;65.05;98444.56;3625930;22;20094;-68
2021/08/08 06:56:58;;;;;;;6.13;2.00;;;;;;;17.28;64.51;98446.66;3590317;40;20060;-68
2021/08/08 06:59:30;;;;;;;4.65;1.98;;;;;;;17.44;63.65;98448.50;3589507;40;20405;-68
2021/08/08 07:01:59;;;;;;;;;;;;;;;17.52;62.97;98450.75;3590162;40;20045;-69
2021/08/08 07:04:30;;;;;;;4.13;1.98;;;;;;;17.56;62.39;98461.78;3589414;40;19933;-69
2021/08/08 07:06:59;;;;;;;8.38;3.13;;;;;;;17.45;61.28;98452.78;3589040;40;20044;-69
2021/08/08 07:09:27;;;;;;;3.67;1.85;;;;;;;17.52;61.21;98455.31;3589083;40;20072;-69
2021/08/08 07:11:55;;;;;;;5.55;2.50;;;;;;;17.49;61.15;98466.47;3588874;40;20040;-69
2021/08/08 07:14:35;;;;;;;2.90;1.52;;;;;;;17.51;61.13;98467.03;3588667;40;20049;-68
2021/08/08 07:17:05;;;;;;;6.03;2.08;;;;;;;17.42;60.73;98461.28;3588709;40;20052;-68
2021/08/08 07:19:34;;;;;;;3.50;1.80;;;;;;;17.55;60.18;98465.47;3588304;40;20049;-68
2021/08/08 07:22:04;;;;;;;4.40;1.77;;;;;;;17.75;59.78;98465.00;3588238;40;20044;-68
2021/08/08 07:24:33;;;;;;;4.30;2.28;;;;;;;17.88;59.84;98461.97;3588573;40;20407;-68
2021/08/08 07:27:01;;;;;;;6.00;1.80;;;;;;;17.87;59.51;98460.34;3588600;40;20375;-68
2021/08/08 07:29:29;;;;;;;4.65;1.92;;;;;;;17.81;59.04;98470.16;3588307;40;20048;-68
2021/08/08 07:32:00;;;;;;;7.80;2.75;;;;;;;17.92;58.88;98465.78;3588640;40;20056;-68
2021/08/08 07:34:28;;;;;;;3.35;1.70;;;;;;;18.31;58.10;98479.06;3589623;40;20084;-68
2021/08/08 07:36:57;;;;;;;4.13;1.75;;;;;;;18.49;57.42;98472.56;3593550;40;20471;-68
2021/08/08 07:39:27;;;;;;;6.47;1.90;;;;;;;18.70;56.62;98487.81;3595184;40;20060;-69
2021/08/08 07:41:54;;;;;;;5.53;1.65;;;;;;;18.57;56.06;98485.47;3594542;40;20048;-69
2021/08/08 07:44:22;;;;;;;7.03;2.08;;;;;;;18.53;55.41;98487.88;3589594;40;20028;-68
2021/08/08 07:46:50;;;;;;;6.00;1.80;;;;;;;18.63;55.77;98491.72;3588371;40;20044;-68
2021/08/08 07:49:20;;;;;;;8.55;2.20;;;;;;;18.61;55.64;98502.66;3587944;40;20044;-68
2021/08/08 07:51:50;;;;;;;5.20;1.70;;;;;;;18.63;55.09;98499.75;3588382;40;20049;-68
2021/08/08 07:54:20;;;;;;;6.25;1.92;;;;;;;18.58;54.84;98494.34;3587921;40;20458;-69
2021/08/08 07:56:50;;;;;;;6.70;1.67;;;;;;;18.64;55.05;98501.34;3588277;40;20055;-69
2021/08/08 07:59:19;;;;;;;3.67;1.88;;;;;;;18.72;55.04;98496.38;3587782;40;20425;-69
2021/08/08 08:01:47;;;;;;;3.90;1.65;;;;;;;18.66;54.21;98496.56;3588159;40;20095;-69
2021/08/08 08:04:16;;;;;;;4.28;1.60;;;;;;;18.76;54.20;98496.69;3589374;40;20076;-69
2021/08/08 08:06:44;;;;;;;5.20;2.03;;;;;;;18.77;53.97;98504.47;3588382;40;20036;-69
2021/08/08 08:09:12;;;;;;;3.13;1.77;;;;;;;18.92;53.79;98503.00;3587892;40;20578;-69
2021/08/08 08:11:41;;;;;;;5.90;2.17;;;;;;;19.15;53.49;98509.91;3588209;40;20060;-69
2021/08/08 08:14:11;;;;;;;3.80;1.85;;;;;;;19.17;53.26;98513.94;3588168;40;20055;-70
2021/08/08 08:16:40;;;;;;;8.10;2.33;;;;;;;19.14;52.95;98519.00;3588916;40;20048;-69
2021/08/08 08:19:08;;;;;;;4.25;1.80;;;;;;;19.09;52.77;98509.03;3587700;40;20052;-69
2021/08/08 08:21:36;;;;;;;4.72;1.52;;;;;;;19.18;52.54;98515.53;3588064;40;20052;-70
2021/08/08 08:24:05;;;;;;;3.03;1.65;;;;;;;19.30;52.05;98524.22;3589066;40;20036;-70
2021/08/08 08:26:32;;;;;;;5.35;1.92;;;;;;;19.28;52.34;98521.00;3588158;40;20050;-70
2021/08/08 08:29:00;;;;;;;4.07;1.70;;;;;;;19.32;51.42;98520.50;3588054;40;20054;-70
2021/08/08 08:31:30;;;;;;;3.45;1.70;;;;;;;19.35;51.83;98522.66;3587862;40;20052;-70
2021/08/08 08:33:58;;;;;;;4.35;1.50;;;;;;;19.42;51.76;98523.25;3588124;40;20052;-70
2021/08/08 08:36:26;;;;;;;4.95;1.75;;;;;;;19.32;51.48;98529.34;3588097;40;20040;-69
2021/08/08 08:38:57;;;;;;;4.80;1.70;;;;;;;19.39;52.06;98537.16;3587889;40;20083;-69
2021/08/08 08:41:28;;;;;;;4.95;1.40;;;;;;;19.62;51.79;98546.75;3588138;40;20298;-69
2021/08/08 08:43:57;;;;;;;4.70;1.27;;;;;;;19.77;51.14;98547.66;3588289;40;20062;-69
2021/08/08 08:46:25;;;;;;;5.80;2.30;;;;;;;19.97;50.72;98544.28;3588319;40;20045;-70
2021/08/08 08:48:55;;;;;;;3.85;1.60;;;;;;;20.03;50.04;98543.25;3588874;40;20058;-70
2021/08/08 08:51:28;;;;;;;3.30;1.60;;;;;;;19.98;49.88;98545.91;3587774;40;20306;-70
2021/08/08 08:54:00;;;;;;;6.57;1.50;;;;;;;19.76;49.67;98546.06;3587909;40;20060;-70
2021/08/08 08:56:29;;;;;;;7.13;1.70;;;;;;;19.77;49.20;98547.66;3589208;40;20068;-70
2021/08/08 08:58:57;;;;;;;5.50;2.08;;;;;;;19.60;49.66;98552.34;3588065;40;20096;-69
2021/08/08 09:01:25;;;;;;;6.50;2.20;;;;;;;19.68;50.27;98541.16;3587713;40;20044;-69
2021/08/08 09:03:55;;;;;;;3.50;1.60;;;;;;;19.89;50.26;98552.03;3588646;40;20110;-69
2021/08/08 09:06:24;;;;;;;5.30;1.75;;;;;;;19.93;49.20;98545.88;3587803;40;20040;-69
2021/08/08 09:08:52;;;;;;;11.90;3.20;;;;;;;19.98;49.96;98539.75;3587518;40;20134;-70
2021/08/08 09:11:20;;;;;;;4.82;2.58;;;;;;;20.09;49.65;98544.09;3587838;40;20061;-70
2021/08/08 09:13:53;;;;;;;6.07;1.92;;;;;;;20.04;49.70;98534.16;3587728;40;20376;-70
2021/08/08 09:16:24;;;;;;;5.18;2.25;;;;;;;20.18;49.84;98536.34;3587669;40;20045;-70
2021/08/08 09:18:55;;;;;;;6.03;1.90;;;;;;;20.20;49.00;98542.25;3587823;40;20048;-70
2021/08/08 09:21:26;;;;;;;5.70;1.80;;;;;;;20.18;49.12;98553.25;3587636;40;20060;-70
2021/08/08 09:23:56;;;;;;;5.70;1.50;;;;;;;20.23;49.12;98547.09;3587569;40;20084;-70
2021/08/08 09:26:31;;;;;;;3.83;2.03;;;;;;;20.26;49.38;98552.75;3587561;40;20291;-70
2021/08/08 09:29:11;;;;;;;3.90;1.55;;;;;;;20.21;49.47;98543.88;3587198;40;20126;-69
2021/08/08 09:31:42;;;;;;;4.85;1.63;;;;;;;20.12;49.67;98553.47;3588158;40;20059;-69
2021/08/08 09:34:26;;;;;;;3.00;1.50;;;;;;;19.82;50.39;98557.59;3587708;40;20044;-69
2021/08/08 09:36:56;;;;;;;5.28;1.85;;;;;;;19.60;50.84;98549.66;3587457;40;20049;-69
2021/08/08 09:39:29;;;;;;;5.05;1.85;;;;;;;19.49;51.03;98562.19;3588379;40;20441;-69
2021/08/08 09:42:13;;;;;;;6.43;2.25;;;;;;;19.45;50.84;98563.75;3587580;40;20566;-69
2021/08/08 09:44:53;;;;;;;6.47;2.10;;;;;;;19.41;50.74;98568.00;3589917;40;20044;-69
2021/08/08 09:47:22;;;;;;;5.63;2.10;;;;;;;19.34;51.31;98567.41;3590363;40;20045;-69
2021/08/08 09:50:04;;;;;;;4.63;1.60;;;;;;;19.36;51.10;98564.50;3589094;40;20419;-69
2021/08/08 09:52:33;;;;;;;4.18;1.48;;;;;;;19.33;51.21;98570.34;3590231;40;20052;-69
2021/08/08 09:55:01;;;;;;;6.38;1.98;;;;;;;19.33;51.71;98571.16;3590349;40;20055;-69
2021/08/08 09:57:38;;;;;;;3.20;1.48;;;;;;;19.35;52.39;98568.22;3588946;40;20044;-69
2021/08/08 10:00:07;;;;;;;4.13;1.70;;;;;;;19.30;52.90;98569.78;3589455;40;20370;-69
2021/08/08 10:02:39;;;;;;;5.97;2.30;;;;;;;19.23;55.36;98571.88;3590451;40;20044;-70
2021/08/08 10:05:09;;;;;;;6.28;2.45;;;;;;;19.32;56.93;98580.25;3589316;40;20387;-71
2021/08/08 10:07:37;;;;;;;8.80;2.17;;;;;;;19.23;56.73;98587.97;3588926;40;20329;-70
2021/08/08 10:10:06;;;;;;;7.38;3.15;;;;;;;19.28;57.45;98584.50;3588418;40;20410;-70
2021/08/08 10:12:50;;;;;;;5.43;2.15;;;;;;;19.20;57.89;98585.78;3589673;40;20390;-70
2021/08/08 10:15:19;;;;;;;7.88;2.20;;;;;;;19.05;58.39;98588.31;3589157;40;20056;-70
2021/08/08 10:17:50;;;;;;;5.30;2.35;;;;;;;19.08;58.72;98590.47;3590354;40;20081;-71
2021/08/08 10:20:22;;;;;;;5.93;2.60;;;;;;;19.17;59.22;98590.84;3592849;40;20162;-71
2021/08/08 10:22:53;;;;;;;6.38;2.65;;;;;;;19.24;59.32;98580.72;3590926;40;20309;-71
2021/08/08 10:25:21;;;;;;;7.90;2.72;;;;;;;19.42;58.92;98576.84;3589162;40;20064;-71
2021/08/08 10:27:49;;;;;;;6.40;2.17;;;;;;;19.47;59.78;98583.09;3589709;40;20076;-71
2021/08/08 10:30:18;;;;;;;6.60;2.45;;;;;;;19.42;59.27;98584.88;3588542;40;20111;-71
2021/08/08 10:32:46;;;;;;;5.95;2.80;;;;;;;19.44;59.36;98594.31;3588526;40;20063;-70
2021/08/08 10:35:16;;;;;;;4.63;2.35;;;;;;;19.38;59.42;98591.81;3589828;40;20387;-71
2021/08/08 10:37:47;;;;;;;8.82;2.25;;;;;;;19.15;59.99;98584.94;3589643;40;20448;-70
2021/08/08 10:40:26;;;;;;;6.43;2.78;;;;;;;18.97;60.75;98584.19;3589805;40;20091;-71
2021/08/08 10:42:54;;;;;;;6.50;2.45;;;;;;;18.91;61.48;98579.06;3589479;40;20341;-71
2021/08/08 10:45:24;;;;;;;6.03;2.50;;;;;;;19.03;61.36;98587.75;3589698;40;20397;-71
2021/08/08 10:47:56;;;;;;;5.80;2.53;;;;;;;19.26;61.37;98594.66;3589034;40;20076;-71
2021/08/08 10:50:39;;;;;;;7.83;3.30;;;;;;;19.36;61.23;98589.41;3589941;40;20381;-69
2021/08/08 10:53:20;;;;;;;7.00;3.13;;;;;;;19.38;61.67;98576.56;3590111;40;20299;-69
2021/08/08 10:55:49;;;;;;;5.32;2.30;;;;;;;19.49;61.86;98578.25;3589738;40;20409;-69
2021/08/08 10:58:17;;;;;;;4.82;2.53;;;;;;;19.62;60.64;98582.41;3589620;40;20054;-69
2021/08/08 11:00:45;;;;;;;6.70;3.10;;;;;;;19.75;61.39;98578.47;3588505;40;20356;-69
2021/08/08 11:03:15;;;;;;;6.35;2.58;;;;;;;19.94;61.05;98576.19;3589426;40;20052;-70
2021/08/08 11:05:44;;;;;;;7.00;3.80;;;;;;;20.04;61.63;98566.34;3588745;40;20145;-69
2021/08/08 11:08:14;;;;;;;11.38;3.10;;;;;;;19.96;61.23;98576.72;3589240;40;20088;-70
2021/08/08 11:10:43;;;;;;;7.25;3.10;;;;;;;20.11;61.74;98576.03;3589488;40;20044;-70
2021/08/08 11:13:22;;;;;;;7.90;5.53;;;;;;;20.13;60.85;98563.16;3589273;40;20052;-69
2021/08/08 11:15:52;;;;;;;6.07;3.03;;;;;;;20.21;61.16;98566.16;3589800;40;20394;-69
2021/08/08 11:18:30;;;;;;;6.13;2.97;;;;;;;20.29;60.71;98562.97;3589468;40;20029;-70
2021/08/08 11:20:58;;;;;;;4.97;2.28;;;;;;;20.30;60.37;98561.09;3588689;40;20076;-69
2021/08/08 11:23:29;;;;;;;7.15;3.25;;;;;;;20.44;60.26;98562.22;3589307;40;20304;-70
2021/08/08 11:25:57;;;;;;;7.07;4.30;;;;;;;20.52;58.63;98563.63;3588998;40;20059;-69
2021/08/08 11:28:25;;;;;;;4.93;2.80;;;;;;;20.66;57.81;98559.41;3589248;40;20451;-70
2021/08/08 11:30:53;;;;;;;8.18;2.63;;;;;;;20.60;56.00;98571.19;3588515;40;20036;-70
2021/08/08 11:33:25;;;;;;;4.50;2.55;;;;;;;20.38;55.06;98568.66;3588250;40;20067;-70
2021/08/08 11:36:01;;;;;;;5.95;2.50;;;;;;;20.59;54.32;98574.94;3589337;40;20114;-69
2021/08/08 11:38:32;;;;;;;7.28;2.15;;;;;;;20.67;53.26;98574.44;3587968;40;20134;-70
2021/08/08 11:41:00;;;;;;;4.28;1.85;;;;;;;20.78;53.04;98575.28;3589127;40;20137;-70
2021/08/08 11:43:31;;;;;;;4.07;2.30;;;;;;;20.92;52.23;98581.75;3589271;40;20033;-70
2021/08/08 11:46:00;;;;;;;6.80;2.25;;;;;;;20.75;51.82;98579.28;3589411;40;20055;-70
2021/08/08 11:48:30;;;;;;;4.82;2.00;;;;;;;20.78;50.91;98575.28;3588999;40;20056;-70